createdAt,value
2018-09-10T00:02:08.420Z,17.40
2018-09-10T00:04:42.728Z,17.40
2018-09-10T00:07:17.085Z,17.30
2018-09-10T00:09:51.528Z,17.20
2018-09-10T00:12:25.856Z,17.10
2018-09-10T00:15:00.188Z,17.10
2018-09-10T00:17:34.488Z,17.10
2018-09-10T00:20:08.668Z,17.10
2018-09-10T00:22:42.884Z,17.00
2018-09-10T00:25:17.197Z,17.10
2018-09-10T00:27:51.560Z,17.10
2018-09-10T00:30:25.875Z,17.10
2018-09-10T00:33:00.280Z,17.00
2018-09-10T00:35:34.604Z,17.00
2018-09-10T00:38:08.928Z,17.00
2018-09-10T00:40:43.296Z,16.90
2018-09-10T00:43:17.460Z,17.10
2018-09-10T00:45:52.739Z,17.10
2018-09-10T00:48:27.000Z,17.10
2018-09-10T00:51:01.291Z,17.00
2018-09-10T00:53:35.584Z,17.00
2018-09-10T00:56:09.899Z,16.90
2018-09-10T00:58:44.599Z,16.90
2018-09-10T01:01:18.928Z,16.90
2018-09-10T01:03:53.269Z,16.90
2018-09-10T01:06:27.576Z,16.90
2018-09-10T01:09:01.781Z,16.90
2018-09-10T01:11:36.556Z,16.90
2018-09-10T01:14:10.789Z,17.00
2018-09-10T01:16:45.058Z,17.00
2018-09-10T01:19:19.430Z,17.00
2018-09-10T01:21:53.807Z,17.00
2018-09-10T01:24:28.084Z,16.90
2018-09-10T01:27:02.469Z,16.90
2018-09-10T01:29:36.808Z,16.90
2018-09-10T01:32:11.104Z,16.90
2018-09-10T01:34:50.976Z,16.90
2018-09-10T01:37:25.203Z,16.80
2018-09-10T01:40:00.620Z,16.90
2018-09-10T01:42:34.861Z,16.90
2018-09-10T01:45:09.180Z,16.80
2018-09-10T01:47:43.549Z,16.80
2018-09-10T01:50:17.867Z,16.80
2018-09-10T01:52:52.200Z,16.90
2018-09-10T01:55:26.519Z,16.80
2018-09-10T01:58:00.808Z,17.00
2018-09-10T02:00:35.077Z,17.10
2018-09-10T02:03:09.503Z,17.10
2018-09-10T02:05:43.796Z,17.20
2018-09-10T02:08:18.224Z,17.20
2018-09-10T02:10:52.507Z,17.20
2018-09-10T02:13:26.840Z,17.20
2018-09-10T02:16:01.130Z,17.10
2018-09-10T02:18:35.464Z,17.10
2018-09-10T02:21:09.864Z,17.00
2018-09-10T02:23:44.125Z,17.00
2018-09-10T02:26:18.361Z,17.00
2018-09-10T02:28:52.616Z,16.90
2018-09-10T02:31:26.903Z,16.90
2018-09-10T02:34:01.367Z,16.90
2018-09-10T02:36:35.685Z,17.00
2018-09-10T02:39:09.996Z,17.00
2018-09-10T02:41:44.676Z,17.00
2018-09-10T02:44:18.988Z,17.10
2018-09-10T02:46:53.304Z,17.30
2018-09-10T02:49:27.655Z,17.20
2018-09-10T02:52:02.528Z,17.20
2018-09-10T02:54:36.820Z,17.20
2018-09-10T02:57:11.179Z,17.30
2018-09-10T02:59:45.499Z,17.30
2018-09-10T03:02:19.752Z,17.30
2018-09-10T03:04:54.162Z,17.30
2018-09-10T03:07:28.372Z,17.30
2018-09-10T03:10:02.604Z,17.30
2018-09-10T03:12:36.869Z,17.20
2018-09-10T03:15:11.120Z,17.10
2018-09-10T03:17:45.438Z,17.10
2018-09-10T03:20:19.848Z,16.90
2018-09-10T03:22:54.163Z,16.90
2018-09-10T03:25:28.464Z,16.90
2018-09-10T03:28:02.722Z,17.00
2018-09-10T03:30:37.040Z,17.00
2018-09-10T03:33:11.223Z,17.00
2018-09-10T03:35:45.536Z,17.10
2018-09-10T03:38:19.779Z,17.10
2018-09-10T03:40:54.295Z,17.10
2018-09-10T03:43:28.730Z,17.00
2018-09-10T03:46:03.030Z,17.00
2018-09-10T03:48:37.444Z,17.10
2018-09-10T03:51:11.836Z,17.10
2018-09-10T03:53:46.228Z,17.10
2018-09-10T03:56:20.528Z,17.10
2018-09-10T03:58:54.775Z,17.10
2018-09-10T04:01:29.120Z,17.20
2018-09-10T04:04:03.515Z,17.20
2018-09-10T04:06:37.834Z,17.20
2018-09-10T04:09:12.188Z,17.20
2018-09-10T04:11:46.505Z,17.30
2018-09-10T04:14:20.904Z,17.30
2018-09-10T04:16:55.370Z,17.30
2018-09-10T04:19:29.671Z,17.20
2018-09-10T04:22:03.948Z,17.10
2018-09-10T04:24:38.313Z,17.10
2018-09-10T04:27:12.752Z,17.10
2018-09-10T04:29:47.017Z,17.20
2018-09-10T04:32:21.191Z,17.20
2018-09-10T04:34:55.544Z,17.10
2018-09-10T04:37:29.805Z,17.00
2018-09-10T04:40:04.472Z,17.10
2018-09-10T04:42:38.884Z,17.00
2018-09-10T04:45:13.227Z,17.10
2018-09-10T04:47:47.513Z,17.20
2018-09-10T04:50:21.836Z,17.30
2018-09-10T04:52:56.191Z,17.40
2018-09-10T04:55:30.500Z,17.20
2018-09-10T04:58:04.871Z,17.10
2018-09-10T05:00:39.236Z,17.30
2018-09-10T05:03:13.405Z,17.30
2018-09-10T05:05:47.719Z,17.30
2018-09-10T05:08:21.999Z,17.30
2018-09-10T05:10:56.365Z,17.20
2018-09-10T05:13:30.728Z,17.30
2018-09-10T05:16:04.924Z,17.30
2018-09-10T05:18:39.236Z,17.50
2018-09-10T05:21:13.528Z,17.40
2018-09-10T05:23:47.823Z,17.20
2018-09-10T05:26:22.231Z,17.30
2018-09-10T05:28:56.521Z,17.50
2018-09-10T05:31:30.812Z,17.50
2018-09-10T05:34:05.006Z,17.40
2018-09-10T05:36:39.184Z,17.50
2018-09-10T05:39:14.168Z,17.50
2018-09-10T05:41:48.418Z,17.40
2018-09-10T05:44:22.607Z,17.30
2018-09-10T05:46:56.874Z,17.30
2018-09-10T05:49:31.444Z,17.30
2018-09-10T05:52:05.668Z,17.40
2018-09-10T05:54:39.936Z,17.40
2018-09-10T05:57:14.268Z,17.40
2018-09-10T05:59:48.640Z,17.40
2018-09-10T06:02:22.940Z,17.50
2018-09-10T06:04:57.161Z,17.80
2018-09-10T06:07:31.664Z,18.10
2018-09-10T06:10:06.032Z,18.20
2018-09-10T06:12:40.264Z,18.00
2018-09-10T06:15:27.318Z,18.20
2018-09-10T06:18:01.718Z,18.10
2018-09-10T06:20:36.008Z,17.80
2018-09-10T06:23:10.356Z,18.00
2018-09-10T06:25:44.616Z,18.10
2018-09-10T06:28:18.906Z,18.40
2018-09-10T06:30:53.212Z,18.50
2018-09-10T06:33:27.614Z,18.40
2018-09-10T06:36:02.241Z,18.40
2018-09-10T06:38:36.544Z,18.60
2018-09-10T06:41:11.494Z,18.60
2018-09-10T06:43:45.702Z,18.70
2018-09-10T06:46:20.067Z,18.80
2018-09-10T06:48:54.308Z,18.70
2018-09-10T06:51:28.764Z,18.70
2018-09-10T06:54:03.176Z,18.80
2018-09-10T06:56:37.526Z,19.00
2018-09-10T06:59:11.814Z,19.00
2018-09-10T07:01:46.113Z,19.00
2018-09-10T07:04:20.330Z,19.00
2018-09-10T07:06:54.652Z,19.20
2018-09-10T07:09:29.044Z,19.30
2018-09-10T07:12:03.539Z,19.40
2018-09-10T07:14:37.933Z,19.30
2018-09-10T07:17:12.411Z,19.30
2018-09-10T07:19:46.770Z,19.70
2018-09-10T07:22:21.071Z,19.50
2018-09-10T07:24:55.419Z,19.30
2018-09-10T07:27:29.707Z,19.80
2018-09-10T07:30:04.456Z,19.90
2018-09-10T07:32:38.936Z,19.90
2018-09-10T07:35:13.276Z,20.20
2018-09-10T07:37:47.672Z,20.50
2018-09-10T07:40:22.004Z,21.10
2018-09-10T07:42:56.308Z,21.50
2018-09-10T07:45:30.656Z,21.40
2018-09-10T07:48:05.408Z,21.40
2018-09-10T07:50:39.728Z,21.40
2018-09-10T07:53:13.950Z,21.30
2018-09-10T07:55:48.288Z,21.30
2018-09-10T07:58:22.720Z,21.10
2018-09-10T08:00:57.097Z,21.10
2018-09-10T08:03:31.328Z,21.10
2018-09-10T08:06:05.968Z,21.10
2018-09-10T08:08:40.236Z,21.10
2018-09-10T08:11:14.936Z,21.00
2018-09-10T08:13:49.208Z,20.90
2018-09-10T08:16:23.583Z,20.60
2018-09-10T08:18:57.999Z,20.60
2018-09-10T08:21:32.566Z,20.70
2018-09-10T08:24:06.827Z,20.80
2018-09-10T08:26:41.240Z,20.80
2018-09-10T08:29:15.500Z,20.80
2018-09-10T08:31:49.845Z,20.50
2018-09-10T08:34:24.284Z,20.60
2018-09-10T08:36:58.652Z,20.60
2018-09-10T08:39:33.148Z,20.60
2018-09-10T08:42:07.548Z,20.70
2018-09-10T08:44:41.788Z,20.70
2018-09-10T08:47:16.224Z,20.80
2018-09-10T08:49:50.600Z,20.40
2018-09-10T08:52:24.931Z,20.40
2018-09-10T08:54:59.626Z,20.40
2018-09-10T08:57:33.625Z,20.60
2018-09-10T09:00:07.964Z,20.70
2018-09-10T09:02:42.254Z,20.40
2018-09-10T09:05:16.427Z,20.20
2018-09-10T09:07:50.747Z,20.50
2018-09-10T09:10:25.044Z,20.70
2018-09-10T09:12:59.362Z,20.70
2018-09-10T09:15:33.687Z,21.00
2018-09-10T09:18:07.900Z,21.00
2018-09-10T09:20:42.267Z,20.60
2018-09-10T09:23:16.738Z,20.60
2018-09-10T09:25:50.944Z,20.90
2018-09-10T09:28:25.515Z,21.20
2018-09-10T09:30:59.712Z,21.40
2018-09-10T09:33:34.024Z,21.50
2018-09-10T09:36:14.101Z,21.40
2018-09-10T09:38:53.804Z,21.60
2018-09-10T09:41:33.208Z,21.70
2018-09-10T09:44:12.803Z,21.70
2018-09-10T09:46:47.068Z,21.70
2018-09-10T09:49:21.260Z,21.70
2018-09-10T09:51:55.536Z,21.60
2018-09-10T09:54:29.848Z,21.60
2018-09-10T09:57:04.229Z,21.50
2018-09-10T09:59:38.556Z,21.60
2018-09-10T10:02:18.424Z,21.60
2018-09-10T10:04:52.727Z,21.60
2018-09-10T10:07:27.108Z,21.30
2018-09-10T10:16:14.169Z,21.70
2018-09-10T10:18:48.340Z,21.80
2018-09-10T10:21:22.636Z,21.80
2018-09-10T10:23:56.944Z,21.70
2018-09-10T10:26:31.359Z,21.60
2018-09-10T10:29:05.588Z,21.40
2018-09-10T10:31:39.928Z,21.10
2018-09-10T10:34:14.495Z,21.20
2018-09-10T10:36:48.755Z,21.30
2018-09-10T10:39:23.063Z,21.40
2018-09-10T10:41:57.285Z,21.60
2018-09-10T10:44:31.504Z,21.60
2018-09-10T10:47:06.000Z,21.50
2018-09-10T10:49:40.196Z,21.60
2018-09-10T10:52:14.627Z,21.60
2018-09-10T10:54:48.921Z,20.70
2018-09-10T10:57:23.240Z,21.00
2018-09-10T10:59:57.781Z,20.90
2018-09-10T11:02:32.081Z,21.00
2018-09-10T11:05:06.675Z,21.20
2018-09-10T11:07:40.839Z,21.40
2018-09-10T11:10:15.170Z,21.40
2018-09-10T11:12:49.590Z,21.50
2018-09-10T11:15:24.000Z,21.40
2018-09-10T11:17:58.337Z,21.60
2018-09-10T11:20:32.564Z,21.60
2018-09-10T11:23:07.096Z,21.70
2018-09-10T11:25:41.365Z,21.90
2018-09-10T11:28:15.732Z,21.90
2018-09-10T11:30:50.072Z,21.80
2018-09-10T11:33:24.404Z,21.60
2018-09-10T11:35:58.768Z,21.50
2018-09-10T11:38:33.084Z,21.40
2018-09-10T11:41:08.472Z,21.40
2018-09-10T11:43:42.688Z,21.60
2018-09-10T11:46:17.100Z,21.70
2018-09-10T11:48:51.476Z,21.90
2018-09-10T11:51:25.640Z,22.00
2018-09-10T11:53:59.977Z,22.00
2018-09-10T11:56:34.250Z,22.10
2018-09-10T11:59:08.676Z,22.10
2018-09-10T12:01:42.972Z,22.00
2018-09-10T12:04:17.220Z,21.90
2018-09-10T12:06:51.536Z,21.80
2018-09-10T12:09:25.812Z,21.70
2018-09-10T12:12:00.030Z,21.70
2018-09-10T12:14:34.285Z,21.80
2018-09-10T12:17:08.540Z,21.90
2018-09-10T12:19:42.797Z,21.80
2018-09-10T12:22:17.359Z,22.00
2018-09-10T12:24:51.619Z,21.90
2018-09-10T12:27:26.018Z,22.00
2018-09-10T12:30:00.801Z,21.90
2018-09-10T12:32:35.121Z,21.80
2018-09-10T12:35:09.507Z,21.80
2018-09-10T12:37:43.872Z,21.80
2018-09-10T12:40:18.252Z,21.90
2018-09-10T12:42:52.537Z,21.90
2018-09-10T12:45:26.828Z,21.90
2018-09-10T12:48:01.172Z,22.00
2018-09-10T12:50:35.533Z,22.00
2018-09-10T12:53:09.876Z,21.90
2018-09-10T12:55:44.200Z,22.00
2018-09-10T12:58:18.596Z,22.00
2018-09-10T13:00:52.772Z,22.10
2018-09-10T13:03:27.120Z,22.20
2018-09-10T13:06:01.425Z,22.20
2018-09-10T13:08:35.656Z,22.30
2018-09-10T13:11:09.964Z,22.30
2018-09-10T13:13:44.327Z,22.30
2018-09-10T13:16:18.731Z,22.40
2018-09-10T13:18:52.980Z,22.40
2018-09-10T13:21:27.327Z,22.40
2018-09-10T13:24:01.684Z,22.40
2018-09-10T13:26:35.868Z,22.40
2018-09-10T13:29:10.208Z,22.40
2018-09-10T13:31:44.532Z,22.30
2018-09-10T13:34:18.912Z,22.30
2018-09-10T13:36:53.212Z,22.30
2018-09-10T13:39:27.500Z,22.40
2018-09-10T13:42:01.856Z,22.30
2018-09-10T13:44:36.139Z,22.40
2018-09-10T13:47:10.516Z,22.40
2018-09-10T13:49:44.835Z,22.30
2018-09-10T13:52:19.164Z,22.40
2018-09-10T13:54:53.420Z,22.40
2018-09-10T13:57:27.752Z,22.30
2018-09-10T14:00:01.967Z,22.40
2018-09-10T14:02:36.844Z,22.40
2018-09-10T14:05:11.152Z,22.30
2018-09-10T14:07:45.336Z,22.30
2018-09-10T14:10:19.718Z,22.30
2018-09-10T14:12:54.040Z,22.30
2018-09-10T14:15:28.367Z,22.30
2018-09-10T14:18:02.672Z,22.40
2018-09-10T14:20:36.972Z,22.30
2018-09-10T14:23:11.295Z,22.30
2018-09-10T14:25:45.672Z,22.40
2018-09-10T14:28:19.984Z,22.50
2018-09-10T14:30:54.328Z,22.40
2018-09-10T14:33:28.707Z,22.30
2018-09-10T14:36:03.008Z,22.30
2018-09-10T14:38:37.283Z,22.30
2018-09-10T14:41:11.713Z,22.40
2018-09-10T14:43:45.980Z,22.30
2018-09-10T14:46:20.206Z,22.30
2018-09-10T14:48:54.528Z,22.20
2018-09-10T14:51:29.639Z,22.20
2018-09-10T15:06:26.616Z,22.20
2018-09-10T15:09:00.813Z,22.30
2018-09-10T15:11:35.176Z,22.20
2018-09-10T15:14:09.543Z,22.10
2018-09-10T15:16:43.812Z,22.10
2018-09-10T15:19:18.155Z,22.20
2018-09-10T15:21:52.382Z,22.20
2018-09-10T15:24:26.719Z,22.00
2018-09-10T15:27:00.880Z,22.10
2018-09-10T15:29:35.361Z,21.90
2018-09-10T15:32:09.747Z,21.90
2018-09-10T15:34:44.059Z,21.80
2018-09-10T15:37:18.308Z,21.80
2018-09-10T15:39:52.635Z,21.80
2018-09-10T15:42:26.860Z,21.80
2018-09-10T15:45:01.908Z,21.70
2018-09-10T15:47:36.144Z,21.90
2018-09-10T15:50:10.508Z,21.90
2018-09-10T15:52:44.707Z,21.90
2018-09-10T15:55:19.018Z,21.90
2018-09-10T15:57:53.252Z,21.90
2018-09-10T16:00:27.424Z,21.90
2018-09-10T16:03:01.652Z,22.00
2018-09-10T16:05:35.992Z,21.90
2018-09-10T16:08:10.208Z,21.90
2018-09-10T16:10:44.557Z,21.90
2018-09-10T16:13:18.759Z,21.80
2018-09-10T16:15:53.059Z,21.80
2018-09-10T16:18:27.423Z,21.80
2018-09-10T16:21:01.779Z,21.70
2018-09-10T16:23:35.981Z,21.60
2018-09-10T16:26:10.384Z,21.60
2018-09-10T16:28:44.596Z,21.70
2018-09-10T16:31:19.055Z,21.70
2018-09-10T16:33:53.263Z,21.70
2018-09-10T16:36:27.465Z,21.70
2018-09-10T16:39:01.727Z,21.70
2018-09-10T16:41:36.091Z,21.70
2018-09-10T16:44:10.480Z,21.70
2018-09-10T16:46:44.663Z,21.50
2018-09-10T16:49:18.964Z,21.40
2018-09-10T16:51:53.304Z,21.30
2018-09-10T16:54:27.755Z,21.30
2018-09-10T16:57:02.008Z,21.30
2018-09-10T16:59:36.180Z,21.30
2018-09-10T17:02:10.564Z,21.20
2018-09-10T17:04:44.716Z,21.20
2018-09-10T17:07:19.121Z,21.20
2018-09-10T17:09:53.438Z,21.20
2018-09-10T17:12:27.666Z,21.10
2018-09-10T17:15:01.985Z,21.00
2018-09-10T17:17:36.263Z,21.10
2018-09-10T17:20:10.676Z,21.10
2018-09-10T17:22:45.021Z,21.10
2018-09-10T17:25:19.344Z,21.10
2018-09-10T17:27:53.670Z,21.10
2018-09-10T17:30:27.996Z,21.10
2018-09-10T17:33:02.230Z,21.00
2018-09-10T17:35:36.617Z,21.00
2018-09-10T17:38:10.824Z,20.90
2018-09-10T17:40:45.139Z,20.90
2018-09-10T17:43:19.389Z,20.80
2018-09-10T17:45:53.713Z,20.80
2018-09-10T17:48:28.038Z,20.80
2018-09-10T17:51:02.219Z,20.70
2018-09-10T17:53:36.395Z,20.70
2018-09-10T17:56:10.608Z,20.60
2018-09-10T17:58:44.956Z,20.60
2018-09-10T18:01:19.182Z,20.60
2018-09-10T18:03:53.472Z,20.70
2018-09-10T18:06:27.672Z,21.00
2018-09-10T18:09:02.145Z,21.20
2018-09-10T18:11:36.348Z,21.40
2018-09-10T18:14:10.685Z,21.50
2018-09-10T18:16:44.927Z,21.60
2018-09-10T18:19:19.260Z,21.70
2018-09-10T18:21:53.612Z,21.70
2018-09-10T18:24:28.000Z,21.90
2018-09-10T18:27:02.302Z,21.90
2018-09-10T18:29:36.648Z,21.90
2018-09-10T18:32:10.834Z,22.00
2018-09-10T18:34:45.174Z,22.00
2018-09-10T18:37:19.616Z,22.10
2018-09-10T18:39:53.858Z,22.10
2018-09-10T18:42:28.264Z,22.10
2018-09-10T18:45:02.611Z,22.10
2018-09-10T18:47:36.840Z,22.20
2018-09-10T18:50:11.276Z,22.20
2018-09-10T18:52:45.628Z,22.20
2018-09-10T18:55:19.885Z,22.20
2018-09-10T18:57:54.172Z,22.20
2018-09-10T19:00:28.365Z,22.20
2018-09-10T19:03:02.720Z,22.20
2018-09-10T19:05:37.073Z,22.20
2018-09-10T19:08:11.415Z,22.20
2018-09-10T19:10:45.772Z,22.20
2018-09-10T19:13:20.090Z,22.20
2018-09-10T19:15:54.520Z,22.20
2018-09-10T19:18:34.228Z,22.20
2018-09-10T19:21:08.868Z,22.30
2018-09-10T19:23:43.228Z,22.30
2018-09-10T19:26:17.452Z,22.30
2018-09-10T19:28:51.780Z,22.30
2018-09-10T19:31:26.154Z,22.30
2018-09-10T19:34:00.557Z,22.30
2018-09-10T19:36:34.824Z,22.30
2018-09-10T19:39:10.216Z,22.30
2018-09-10T19:41:44.396Z,22.30
2018-09-10T19:44:18.688Z,22.20
2018-09-10T19:46:53.027Z,22.20
2018-09-10T19:49:27.172Z,22.30
2018-09-10T19:52:01.620Z,22.30
2018-09-10T19:54:35.933Z,22.30
2018-09-10T19:57:10.150Z,22.20
2018-09-10T19:59:44.431Z,22.10
2018-09-10T20:02:18.633Z,22.00
2018-09-10T20:04:52.884Z,22.00
2018-09-10T20:07:27.172Z,22.10
2018-09-10T20:10:01.473Z,22.10
2018-09-10T20:12:35.944Z,22.20
2018-09-10T20:15:10.475Z,22.20
2018-09-10T20:17:44.649Z,22.20
2018-09-10T20:20:18.946Z,22.20
2018-09-10T20:22:53.278Z,22.20
2018-09-10T20:25:27.438Z,22.20
2018-09-10T20:28:01.808Z,22.20
2018-09-10T20:30:36.182Z,22.20
2018-09-10T20:33:10.350Z,22.20
2018-09-10T20:35:44.669Z,22.20
2018-09-10T20:38:18.956Z,22.20
2018-09-10T20:40:53.325Z,22.20
2018-09-10T20:43:27.717Z,22.20
2018-09-10T20:46:02.112Z,22.20
2018-09-10T20:48:36.457Z,22.30
2018-09-10T20:51:10.774Z,22.20
2018-09-10T20:53:45.356Z,22.30
2018-09-10T20:56:19.524Z,22.20
2018-09-10T20:58:53.876Z,22.20
2018-09-10T21:01:28.128Z,22.20
2018-09-10T21:04:02.456Z,22.20
2018-09-10T21:06:36.849Z,22.20
2018-09-10T21:09:11.676Z,22.20
2018-09-10T21:11:46.028Z,22.20
2018-09-10T21:14:20.223Z,22.20
2018-09-10T21:16:54.581Z,22.20
2018-09-10T21:19:28.852Z,22.20
2018-09-10T21:22:03.218Z,22.20
2018-09-10T21:24:37.484Z,22.20
2018-09-10T21:27:11.723Z,22.20
2018-09-10T21:29:46.151Z,22.20
2018-09-10T21:32:20.496Z,22.30
2018-09-10T21:34:54.864Z,22.30
2018-09-10T21:37:29.208Z,22.20
2018-09-10T21:40:03.468Z,22.20
2018-09-10T21:42:37.635Z,22.20
2018-09-10T21:45:12.088Z,22.20
2018-09-10T21:47:46.391Z,22.20
2018-09-10T21:50:20.564Z,22.20
2018-09-10T21:52:54.811Z,22.20
2018-09-10T21:55:29.028Z,22.20
2018-09-10T21:58:03.495Z,22.20
2018-09-10T22:00:42.033Z,22.20
2018-09-10T22:03:16.375Z,22.20
2018-09-10T22:05:50.670Z,22.20
2018-09-10T22:08:24.947Z,22.20
2018-09-10T22:10:59.176Z,22.20
2018-09-10T22:13:33.493Z,22.10
2018-09-10T22:16:07.759Z,22.10
2018-09-10T22:18:42.029Z,22.10
2018-09-10T22:21:16.319Z,22.10
2018-09-10T22:23:50.607Z,22.10
2018-09-10T22:26:25.104Z,22.10
2018-09-10T22:28:59.540Z,22.10
2018-09-10T22:31:33.758Z,22.10
2018-09-10T22:34:08.073Z,22.00
2018-09-10T22:36:42.324Z,22.10
2018-09-10T22:39:16.604Z,22.10
2018-09-10T22:41:50.812Z,22.10
2018-09-10T22:44:27.895Z,22.00
2018-09-10T22:47:02.096Z,22.10
2018-09-10T22:49:36.950Z,22.00
2018-09-10T22:52:11.212Z,22.00
2018-09-10T22:54:45.382Z,22.00
2018-09-10T22:57:19.587Z,22.00
2018-09-10T22:59:54.019Z,22.00
2018-09-10T23:02:28.219Z,22.00
2018-09-10T23:05:02.516Z,22.00
2018-09-10T23:07:36.792Z,22.00
2018-09-10T23:10:11.131Z,22.00
2018-09-10T23:12:45.452Z,22.00
2018-09-10T23:15:19.764Z,22.00
2018-09-10T23:17:54.128Z,22.00
2018-09-10T23:20:28.463Z,22.00
2018-09-10T23:23:02.733Z,22.00
2018-09-10T23:25:36.960Z,22.00
2018-09-10T23:28:11.223Z,22.00
2018-09-10T23:30:45.563Z,21.90
2018-09-10T23:33:19.951Z,21.90
2018-09-10T23:35:54.244Z,21.90
2018-09-10T23:38:28.603Z,22.00
2018-09-10T23:41:02.860Z,21.90
2018-09-10T23:43:37.292Z,21.90
2018-09-10T23:46:11.703Z,21.90
2018-09-10T23:48:46.051Z,21.90
2018-09-10T23:51:20.427Z,21.90
2018-09-10T23:53:54.732Z,21.90
2018-09-10T23:56:28.962Z,21.90
2018-09-10T23:59:03.227Z,21.90
